Pagrindinis puslapis
METAR-TAF:

METAR-TAF

Oro uostai :

Abadanas, Iranas

platuma: 30-22N, ilguma: 048-15E, Aukštis: 3 m

Dabartinis oras

Ataskaita buvo paskelbta 40 minutes, ne 00:00 UTC
Ramus vėjas
Temperatūra 24°C
Drėgmė 44%
Slėgis 1004 hPa
Matomumas 10 km arba daugiau
nėra debesų žemiau 1500 m ir nėra kamuolinių lietaus debesų

METAR: OIAA 240000Z 00000KT CAVOK 24/11 Q1004

Laikas: 04:10 (00:40 UTC)

Prognozė

Ataskaita buvo paskelbta 1 valandą ir 40 minutes, ne 23:00 UTC
Prognozė galioja nuo 24 metu 00 UTC su 25 metu 06 UTC
Vėjas 8 kt iš Rytų
Matomumas: 8000 m
Tapsmas
nuo 24 metu 20 UTC su 24 metu 22 UTC
Vėjas 12 kt iš Šiaurės/Šiaurės Vakarų

TAF: OIAA 232300Z 2400/2506 10008KT 8000 NSC BECMG 2420/2422 33012KT

Orai ataskaitas ir orų prognozės (METAR, TAF).

turimą stotys yra geltonos ir raudonos taškus žemėlapyje.

Perkelti pele per norėdami pamatyti stoties vardą.

Tada spustelėkite, norėdami matyti oro stebėjimo ir prognozės.

Norėdami pakeisti žemėlapį: spustelėkite ant žalios mygtukų su juodo kryžiaus žemyn,; žalią mygtuką su brūkšneliu, jei norite nutolinti; arba žalių rodyklių gretimoms žemėlapius.


METAR-TAF: